createdAt,value
2018-06-28T00:00:46.052Z,81.86
2018-06-28T00:01:46.113Z,82.05
2018-06-28T00:02:45.378Z,82.15
2018-06-28T00:03:45.527Z,82.05
2018-06-28T00:04:46.286Z,82.15
2018-06-28T00:05:46.111Z,82.53
2018-06-28T00:06:44.625Z,82.34
2018-06-28T00:07:45.784Z,82.24
2018-06-28T00:08:46.220Z,82.43
2018-06-28T00:09:46.195Z,82.43
2018-06-28T00:10:44.661Z,82.53
2018-06-28T00:11:46.180Z,82.63
2018-06-28T00:12:45.451Z,83.40
2018-06-28T00:13:46.371Z,83.49
2018-06-28T00:14:45.407Z,83.78
2018-06-28T00:15:48.458Z,83.87
2018-06-28T00:16:44.780Z,84.17
2018-06-28T00:17:45.709Z,84.26
2018-06-28T00:18:45.397Z,84.26
2018-06-28T00:19:45.339Z,84.17
2018-06-28T00:20:45.746Z,85.13
2018-06-28T00:21:48.068Z,85.51
2018-06-28T00:22:45.698Z,85.61
2018-06-28T00:23:47.643Z,85.32
2018-06-28T00:24:45.487Z,85.51
2018-06-28T00:25:46.056Z,85.22
2018-06-28T00:26:46.102Z,86.24
2018-06-28T00:27:46.061Z,86.09
2018-06-28T00:28:46.245Z,86.91
2018-06-28T00:29:45.730Z,87.49
2018-06-28T00:30:44.684Z,87.29
2018-06-28T00:31:45.719Z,87.68
2018-06-28T00:32:45.410Z,87.68
2018-06-28T00:33:46.199Z,87.68
2018-06-28T00:34:46.100Z,87.39
2018-06-28T00:35:46.106Z,87.39
2018-06-28T00:36:52.140Z,87.49
2018-06-28T00:37:51.974Z,87.10
2018-06-28T00:38:46.085Z,87.19
2018-06-28T00:39:47.779Z,88.16
2018-06-28T00:40:45.806Z,87.96
2018-06-28T00:41:46.122Z,87.96
2018-06-28T00:42:46.130Z,88.45
2018-06-28T00:43:46.386Z,88.25
2018-06-28T00:44:46.214Z,88.64
2018-06-28T00:45:46.101Z,88.64
2018-06-28T00:46:48.114Z,88.73
2018-06-28T00:47:48.051Z,88.93
2018-06-28T00:48:46.158Z,88.64
2018-06-28T00:49:46.030Z,88.64
2018-06-28T00:50:46.060Z,89.02
2018-06-28T00:51:46.049Z,89.69
2018-06-28T00:52:46.099Z,89.50
2018-06-28T00:53:46.148Z,89.40
2018-06-28T00:54:46.121Z,89.79
2018-06-28T00:55:46.051Z,89.60
2018-06-28T00:56:46.053Z,89.50
2018-06-28T00:57:46.064Z,90.27
2018-06-28T00:58:46.063Z,91.13
2018-06-28T00:59:46.124Z,91.71
2018-06-28T01:00:46.172Z,91.04
2018-06-28T01:01:46.103Z,91.52
2018-06-28T01:02:46.128Z,91.61
2018-06-28T01:03:46.392Z,91.23
2018-06-28T01:04:46.124Z,91.81
2018-06-28T01:05:46.007Z,92.00
2018-06-28T01:06:46.320Z,92.19
2018-06-28T01:07:46.412Z,91.52
2018-06-28T01:08:46.209Z,92.00
2018-06-28T01:09:45.751Z,92.00
2018-06-28T01:10:46.179Z,92.24
2018-06-28T01:11:46.281Z,92.29
2018-06-28T01:12:46.214Z,92.19
2018-06-28T01:13:46.282Z,92.00
2018-06-28T01:14:46.191Z,92.96
2018-06-28T01:15:46.177Z,92.29
2018-06-28T01:16:46.090Z,92.38
2018-06-28T01:17:46.057Z,92.86
2018-06-28T01:18:46.163Z,92.72
2018-06-28T01:19:46.097Z,93.10
2018-06-28T01:20:46.114Z,93.30
2018-06-28T01:21:46.122Z,93.39
2018-06-28T01:22:46.110Z,93.59
2018-06-28T01:23:45.785Z,94.26
2018-06-28T01:24:46.112Z,93.97
2018-06-28T01:25:46.122Z,94.16
2018-06-28T01:26:46.128Z,94.07
2018-06-28T01:27:46.101Z,93.97
2018-06-28T01:28:46.158Z,94.35
2018-06-28T01:29:46.134Z,94.54
2018-06-28T01:30:46.106Z,94.45
2018-06-28T01:31:46.187Z,93.97
2018-06-28T01:32:46.119Z,94.07
2018-06-28T01:33:46.074Z,94.26
2018-06-28T01:34:46.183Z,94.83
2018-06-28T01:35:46.166Z,94.74
2018-06-28T01:36:46.398Z,94.93
2018-06-28T01:37:46.097Z,94.93
2018-06-28T01:38:46.539Z,94.74
2018-06-28T01:39:45.786Z,95.41
2018-06-28T01:40:46.200Z,95.31
2018-06-28T01:41:46.158Z,95.31
2018-06-28T01:42:46.172Z,95.50
2018-06-28T01:43:46.186Z,95.41
2018-06-28T01:45:46.084Z,96.18
2018-06-28T01:46:46.058Z,95.79
2018-06-28T01:47:46.140Z,95.79
2018-06-28T01:48:46.105Z,96.18
2018-06-28T01:49:46.109Z,96.56
2018-06-28T01:50:46.304Z,96.37
2018-06-28T01:51:46.033Z,96.08
2018-06-28T01:52:46.051Z,96.47
2018-06-28T01:53:46.090Z,96.56
2018-06-28T01:54:46.069Z,97.04
2018-06-28T01:55:46.111Z,96.89
2018-06-28T01:56:46.056Z,96.80
2018-06-28T01:57:46.124Z,96.94
2018-06-28T01:58:46.098Z,96.99
2018-06-28T01:59:46.112Z,96.94
2018-06-28T02:00:46.225Z,97.38
2018-06-28T02:01:46.048Z,97.38
2018-06-28T02:02:46.131Z,97.95
2018-06-28T02:03:46.174Z,97.95
2018-06-28T02:04:46.142Z,98.62
2018-06-28T02:05:46.130Z,98.72
2018-06-28T02:06:46.167Z,98.91
2018-06-28T02:07:48.100Z,99.01
2018-06-28T02:08:46.459Z,99.01
2018-06-28T02:09:45.993Z,98.53
2018-06-28T02:10:45.964Z,98.91
2018-06-28T02:11:45.997Z,98.72
2018-06-28T02:12:46.025Z,98.72
2018-06-28T02:13:47.745Z,99.10
2018-06-28T02:14:46.198Z,99.29
2018-06-28T02:15:46.262Z,99.39
2018-06-28T02:16:45.972Z,99.49
2018-06-28T02:17:46.216Z,99.39
2018-06-28T02:18:45.974Z,99.68
2018-06-28T02:19:46.191Z,99.01
2018-06-28T02:20:46.186Z,98.91
2018-06-28T02:21:46.183Z,99.39
2018-06-28T02:22:46.205Z,99.87
2018-06-28T02:23:46.276Z,99.99
2018-06-28T02:24:46.061Z,99.96
2018-06-28T02:25:46.058Z,99.99
2018-06-28T02:26:46.182Z,99.96
2018-06-28T02:27:46.094Z,99.99
2018-06-28T02:28:46.205Z,99.99
2018-06-28T02:29:46.053Z,99.99
2018-06-28T02:30:46.190Z,99.96
2018-06-28T02:31:46.193Z,99.99
2018-06-28T02:32:46.082Z,99.99
2018-06-28T02:33:46.197Z,99.99
2018-06-28T02:34:46.192Z,99.99
2018-06-28T02:35:46.191Z,99.99
2018-06-28T02:36:46.188Z,99.99
2018-06-28T02:37:45.972Z,99.99
2018-06-28T02:38:45.964Z,99.99
2018-06-28T02:39:45.959Z,99.99
2018-06-28T02:40:45.979Z,99.99
2018-06-28T02:41:46.210Z,99.99
2018-06-28T02:42:45.987Z,99.99
2018-06-28T02:43:46.239Z,99.99
2018-06-28T02:44:46.199Z,99.99
2018-06-28T02:45:46.009Z,99.99
2018-06-28T02:46:45.971Z,99.99
2018-06-28T02:47:46.212Z,99.99
2018-06-28T02:48:45.989Z,99.99
2018-06-28T02:49:46.217Z,99.99
2018-06-28T02:50:46.212Z,99.99
2018-06-28T02:51:46.036Z,99.99
2018-06-28T02:52:46.090Z,99.99
2018-06-28T02:53:46.062Z,99.99
2018-06-28T02:54:46.196Z,99.99
2018-06-28T02:55:46.040Z,99.99
2018-06-28T02:56:46.191Z,99.99
2018-06-28T02:57:46.203Z,99.99
2018-06-28T02:58:46.191Z,99.99
2018-06-28T02:59:46.033Z,99.99
2018-06-28T03:00:46.196Z,99.99
2018-06-28T03:01:46.202Z,99.99
2018-06-28T03:02:46.221Z,99.99
2018-06-28T03:03:46.200Z,99.99
2018-06-28T03:04:46.201Z,99.99
2018-06-28T03:05:46.198Z,99.99
2018-06-28T03:06:46.251Z,99.99
2018-06-28T03:07:46.208Z,99.99
2018-06-28T03:08:46.099Z,99.99
2018-06-28T03:09:46.007Z,99.99
2018-06-28T03:10:46.248Z,99.99
2018-06-28T03:11:46.042Z,99.99
2018-06-28T03:12:46.048Z,99.99
2018-06-28T03:13:46.086Z,99.99
2018-06-28T03:14:46.096Z,99.99
2018-06-28T03:15:46.118Z,99.99
2018-06-28T03:16:46.245Z,99.99
2018-06-28T03:17:45.727Z,99.99
2018-06-28T03:18:46.064Z,99.99
2018-06-28T03:19:46.027Z,99.99
2018-06-28T03:20:46.016Z,99.99
2018-06-28T03:21:46.543Z,99.99
2018-06-28T03:22:45.983Z,99.99
2018-06-28T03:23:46.017Z,99.99
2018-06-28T03:24:46.020Z,99.99
2018-06-28T03:25:46.001Z,99.99
2018-06-28T03:26:45.989Z,99.99
2018-06-28T03:27:46.044Z,99.99
2018-06-28T03:28:46.068Z,99.99
2018-06-28T03:29:46.059Z,99.99
2018-06-28T03:30:46.032Z,99.99
2018-06-28T03:31:46.017Z,99.99
2018-06-28T03:32:45.969Z,99.99
2018-06-28T03:33:46.018Z,99.99
2018-06-28T03:34:46.287Z,99.99
2018-06-28T03:35:45.802Z,99.99
2018-06-28T03:36:47.183Z,99.99
2018-06-28T03:37:45.662Z,99.99
2018-06-28T03:38:45.962Z,99.99
2018-06-28T03:39:45.953Z,99.99
2018-06-28T03:40:46.018Z,99.99
2018-06-28T03:41:46.036Z,99.99
2018-06-28T03:42:45.983Z,99.99
2018-06-28T03:43:45.979Z,99.99
2018-06-28T03:44:45.949Z,99.99
2018-06-28T03:45:46.004Z,99.99
2018-06-28T03:46:45.986Z,99.99
2018-06-28T03:47:46.034Z,99.99
2018-06-28T03:48:45.950Z,99.99
2018-06-28T03:49:46.039Z,99.99
2018-06-28T03:50:46.159Z,99.99
2018-06-28T03:51:46.067Z,99.99
2018-06-28T03:52:45.996Z,99.99
2018-06-28T03:53:45.981Z,99.99
2018-06-28T03:54:46.054Z,99.99
2018-06-28T03:55:46.707Z,99.99
2018-06-28T03:56:46.045Z,99.99
2018-06-28T03:57:45.972Z,99.99
2018-06-28T03:58:45.964Z,99.99
2018-06-28T03:59:46.059Z,99.99
2018-06-28T04:00:46.014Z,99.99
2018-06-28T04:01:46.032Z,99.99
2018-06-28T04:02:46.107Z,99.99
2018-06-28T04:03:46.219Z,99.99
2018-06-28T04:04:46.234Z,99.99
2018-06-28T04:05:46.659Z,99.99
2018-06-28T04:06:45.700Z,99.99
2018-06-28T04:07:46.094Z,99.99
2018-06-28T04:08:46.081Z,99.99
2018-06-28T04:09:46.119Z,99.99
2018-06-28T04:10:46.292Z,99.99
2018-06-28T04:11:46.102Z,99.99
2018-06-28T04:12:46.029Z,99.99
2018-06-28T04:13:46.029Z,99.99
2018-06-28T04:14:46.239Z,99.99
2018-06-28T04:15:46.028Z,99.99
2018-06-28T04:16:46.315Z,99.99
2018-06-28T04:17:46.016Z,99.99
2018-06-28T04:18:46.576Z,99.99
2018-06-28T04:19:46.000Z,99.99
2018-06-28T04:20:45.939Z,99.99
2018-06-28T04:21:45.977Z,99.99
2018-06-28T04:22:46.259Z,99.99
2018-06-28T04:23:45.656Z,99.99
2018-06-28T04:24:46.110Z,99.99
2018-06-28T04:25:46.034Z,99.99
2018-06-28T04:26:46.055Z,99.99
2018-06-28T04:27:46.110Z,99.99
2018-06-28T04:28:46.041Z,99.99
2018-06-28T04:29:46.047Z,99.99
2018-06-28T04:30:46.084Z,99.99
2018-06-28T04:31:46.104Z,99.99
2018-06-28T04:32:46.043Z,99.99
2018-06-28T04:33:46.223Z,99.99
2018-06-28T04:34:46.564Z,99.99
2018-06-28T04:35:46.281Z,99.99
2018-06-28T04:36:46.277Z,99.99
2018-06-28T04:37:46.574Z,99.99
2018-06-28T04:38:45.747Z,99.99
2018-06-28T04:39:46.581Z,99.99
2018-06-28T04:40:46.556Z,99.99
2018-06-28T04:41:46.273Z,99.99
2018-06-28T04:42:46.265Z,99.99
2018-06-28T04:43:46.584Z,99.99
2018-06-28T04:44:45.992Z,99.99
2018-06-28T04:45:46.026Z,99.99
2018-06-28T04:46:46.307Z,99.99
2018-06-28T04:47:47.790Z,99.99
2018-06-28T04:48:46.271Z,99.99
2018-06-28T04:49:46.346Z,99.99
2018-06-28T04:50:46.308Z,99.99
2018-06-28T04:51:46.267Z,99.99
2018-06-28T04:52:46.270Z,99.99
2018-06-28T04:53:46.734Z,99.99
2018-06-28T04:54:46.007Z,99.99
2018-06-28T04:55:46.792Z,99.99
2018-06-28T04:56:46.072Z,99.99
2018-06-28T04:57:46.011Z,99.99
2018-06-28T04:58:46.061Z,99.99
2018-06-28T04:59:45.969Z,99.99
2018-06-28T05:00:46.071Z,99.96
2018-06-28T05:01:46.068Z,99.10
2018-06-28T05:02:46.027Z,98.33
2018-06-28T05:03:46.075Z,98.72
2018-06-28T05:04:46.025Z,98.62
2018-06-28T05:05:46.055Z,99.20
2018-06-28T05:06:45.977Z,99.25
2018-06-28T05:07:46.320Z,99.05
2018-06-28T05:08:46.244Z,98.67
2018-06-28T05:09:45.987Z,98.00
2018-06-28T05:10:46.599Z,97.91
2018-06-28T05:11:48.401Z,94.74
2018-06-28T05:12:46.694Z,94.93
2018-06-28T05:13:46.010Z,94.45
2018-06-28T05:14:46.280Z,95.21
2018-06-28T05:15:45.329Z,95.89
2018-06-28T05:16:45.769Z,95.50
2018-06-28T05:17:46.305Z,94.93
2018-06-28T05:18:45.987Z,95.31
2018-06-28T05:19:46.165Z,94.64
2018-06-28T05:20:46.592Z,94.45
2018-06-28T05:21:44.537Z,95.31
2018-06-28T05:22:45.551Z,94.16
2018-06-28T05:23:46.080Z,93.87
2018-06-28T05:24:45.635Z,93.49
2018-06-28T05:25:45.279Z,92.33
2018-06-28T05:26:45.564Z,91.52
2018-06-28T05:27:44.530Z,91.90
2018-06-28T05:28:48.023Z,92.38
2018-06-28T05:29:44.514Z,90.46
2018-06-28T05:30:46.154Z,90.08
2018-06-28T05:31:45.562Z,90.17
2018-06-28T05:32:45.310Z,90.46
2018-06-28T05:33:44.533Z,90.94
2018-06-28T05:34:44.581Z,90.75
2018-06-28T05:35:45.599Z,90.94
2018-06-28T05:36:44.524Z,91.04
2018-06-28T05:37:44.489Z,91.04
2018-06-28T05:39:46.069Z,90.94
2018-06-28T05:40:47.877Z,91.23
2018-06-28T05:41:46.301Z,91.90
2018-06-28T05:42:44.974Z,91.13
2018-06-28T05:43:45.798Z,91.42
2018-06-28T05:44:45.264Z,90.51
2018-06-28T05:45:46.571Z,89.74
2018-06-28T05:46:46.020Z,89.07
2018-06-28T05:47:46.087Z,89.16
2018-06-28T05:48:45.719Z,89.26
2018-06-28T05:49:46.139Z,88.87
2018-06-28T05:50:44.585Z,88.97
2018-06-28T05:51:45.543Z,88.87
2018-06-28T05:52:44.625Z,89.45
2018-06-28T05:53:44.486Z,89.45
2018-06-28T05:54:44.537Z,89.07
2018-06-28T05:55:44.505Z,88.44
2018-06-28T05:56:44.481Z,88.53
2018-06-28T05:57:44.495Z,89.11
2018-06-28T05:58:44.502Z,89.40
2018-06-28T05:59:44.504Z,89.69
2018-06-28T06:00:44.499Z,89.98
2018-06-28T06:01:44.515Z,89.40
2018-06-28T06:02:44.509Z,88.44
2018-06-28T06:03:44.503Z,87.57
2018-06-28T06:04:44.489Z,85.75
2018-06-28T06:05:44.496Z,85.55
2018-06-28T06:06:45.322Z,85.36
2018-06-28T06:07:45.311Z,85.27
2018-06-28T06:08:46.120Z,84.44
2018-06-28T06:09:45.721Z,83.67
2018-06-28T06:10:45.758Z,83.96
2018-06-28T06:11:45.600Z,84.54
2018-06-28T06:12:45.203Z,85.11
2018-06-28T06:14:45.558Z,82.90
2018-06-28T06:15:45.655Z,83.39
2018-06-28T06:16:44.537Z,82.71
2018-06-28T06:17:46.541Z,82.71
2018-06-28T06:18:44.631Z,83.42
2018-06-28T06:19:44.506Z,83.67
2018-06-28T06:20:44.895Z,84.39
2018-06-28T06:21:44.826Z,84.29
2018-06-28T06:22:44.511Z,83.86
2018-06-28T06:23:44.844Z,82.37
2018-06-28T06:24:45.763Z,82.17
2018-06-28T06:25:45.223Z,82.17
2018-06-28T06:26:45.299Z,81.50
2018-06-28T06:27:44.513Z,82.17
2018-06-28T06:28:44.492Z,82.17
2018-06-28T06:29:44.514Z,81.88
2018-06-28T06:30:44.868Z,81.12
2018-06-28T06:31:44.580Z,81.12
2018-06-28T06:32:45.274Z,81.60
2018-06-28T06:33:45.424Z,80.19
2018-06-28T06:34:44.707Z,80.48
2018-06-28T06:35:44.545Z,78.36
2018-06-28T06:36:45.322Z,77.98
2018-06-28T06:37:45.569Z,77.69
2018-06-28T06:38:45.571Z,77.59
2018-06-28T06:39:45.258Z,78.36
2018-06-28T06:40:45.700Z,78.02
2018-06-28T06:41:44.635Z,76.09
2018-06-28T06:42:45.710Z,75.61
2018-06-28T06:43:45.820Z,74.93
2018-06-28T06:44:45.682Z,74.84
2018-06-28T06:45:45.723Z,75.90
2018-06-28T06:46:46.111Z,76.09
2018-06-28T06:47:45.503Z,76.76
2018-06-28T06:48:44.829Z,76.18
2018-06-28T06:49:44.543Z,75.03
2018-06-28T06:50:44.505Z,74.84
2018-06-28T06:51:44.509Z,75.32
2018-06-28T06:52:44.542Z,74.84
2018-06-28T06:53:45.766Z,74.65
2018-06-28T06:54:46.108Z,73.97
2018-06-28T06:55:46.074Z,74.26
2018-06-28T06:56:45.741Z,73.97
2018-06-28T06:57:45.627Z,73.49
2018-06-28T06:58:45.761Z,73.05
2018-06-28T06:59:45.311Z,73.01
2018-06-28T07:00:45.749Z,73.05
2018-06-28T07:01:45.249Z,71.70
2018-06-28T07:02:45.778Z,71.22
2018-06-28T07:03:45.794Z,71.60
2018-06-28T07:04:45.634Z,71.12
2018-06-28T07:05:46.122Z,71.02
2018-06-28T07:06:45.397Z,71.02
2018-06-28T07:07:45.833Z,70.64
2018-06-28T07:08:45.293Z,70.54
2018-06-28T07:09:46.148Z,70.15
2018-06-28T07:10:48.329Z,69.80
2018-06-28T07:11:45.758Z,70.57
2018-06-28T07:12:45.636Z,71.15
2018-06-28T07:13:47.875Z,71.12
2018-06-28T07:14:46.500Z,70.57
2018-06-28T07:15:46.446Z,71.02
2018-06-28T07:16:46.646Z,70.00
2018-06-28T07:17:46.389Z,69.42
2018-06-28T07:18:46.344Z,68.59
2018-06-28T07:19:46.323Z,67.14
2018-06-28T07:20:46.632Z,66.94
2018-06-28T07:21:46.107Z,66.85
2018-06-28T07:22:46.936Z,67.43
2018-06-28T07:23:46.347Z,67.33
2018-06-28T07:24:48.251Z,67.52
2018-06-28T07:25:46.355Z,67.71
2018-06-28T07:26:45.854Z,67.62
2018-06-28T07:27:46.302Z,67.43
2018-06-28T07:28:46.900Z,68.10
2018-06-28T07:29:46.301Z,67.71
2018-06-28T07:30:46.296Z,67.62
2018-06-28T07:31:46.828Z,67.33
2018-06-28T07:32:46.672Z,66.94
2018-06-28T07:33:45.658Z,66.27
2018-06-28T07:34:46.665Z,66.56
2018-06-28T07:35:46.288Z,66.94
2018-06-28T07:36:47.835Z,66.85
2018-06-28T07:37:46.981Z,66.08
2018-06-28T07:38:46.114Z,65.34
2018-06-28T07:39:46.306Z,65.43
2018-06-28T07:40:46.386Z,64.86
2018-06-28T07:41:46.701Z,64.37
2018-06-28T07:42:46.444Z,64.47
2018-06-28T07:43:46.869Z,63.89
2018-06-28T07:44:46.295Z,62.08
2018-06-28T07:45:46.157Z,62.18
2018-06-28T07:46:46.754Z,61.77
2018-06-28T07:47:46.840Z,62.34
2018-06-28T07:48:46.149Z,62.86
2018-06-28T07:49:46.260Z,62.66
2018-06-28T07:50:46.681Z,62.18
2018-06-28T07:51:46.378Z,62.18
2018-06-28T07:52:46.298Z,61.12
2018-06-28T07:53:46.368Z,61.02
2018-06-28T07:54:45.743Z,61.51
2018-06-28T07:55:46.648Z,61.41
2018-06-28T07:56:46.215Z,61.80
2018-06-28T07:57:48.404Z,61.80
2018-06-28T07:58:46.707Z,61.02
2018-06-28T07:59:46.349Z,61.15
2018-06-28T08:00:46.364Z,61.83
2018-06-28T08:01:46.364Z,61.51
2018-06-28T08:02:46.365Z,62.12
2018-06-28T08:03:46.364Z,61.83
2018-06-28T08:04:46.408Z,60.28
2018-06-28T08:05:46.383Z,59.60
2018-06-28T08:06:46.685Z,59.31
2018-06-28T08:07:46.148Z,59.60
2018-06-28T08:08:46.141Z,59.89
2018-06-28T08:09:46.737Z,59.80
2018-06-28T08:10:47.689Z,60.18
2018-06-28T08:11:46.378Z,59.89
2018-06-28T08:12:46.059Z,59.80
2018-06-28T08:13:46.835Z,59.70
2018-06-28T08:14:46.119Z,60.18
2018-06-28T08:15:46.683Z,59.15
2018-06-28T08:16:46.312Z,59.02
2018-06-28T08:17:46.317Z,59.80
2018-06-28T08:18:48.893Z,59.70
2018-06-28T08:19:48.373Z,59.12
2018-06-28T08:20:46.338Z,59.25
2018-06-28T08:21:48.404Z,58.45
2018-06-28T08:22:46.379Z,59.12
2018-06-28T08:23:46.305Z,59.80
2018-06-28T08:24:46.723Z,59.41
2018-06-28T08:25:46.321Z,59.83
2018-06-28T08:26:46.360Z,58.37
2018-06-28T08:27:46.625Z,58.18
2018-06-28T08:28:46.359Z,57.54
2018-06-28T08:29:46.843Z,57.15
2018-06-28T08:30:46.357Z,56.67
2018-06-28T08:31:46.850Z,57.12
2018-06-28T08:32:45.950Z,57.12
2018-06-28T08:33:46.145Z,57.21
2018-06-28T08:34:46.376Z,57.31
2018-06-28T08:35:46.710Z,58.02
2018-06-28T08:36:46.191Z,58.02
2018-06-28T08:37:46.685Z,58.40
2018-06-28T08:38:46.171Z,58.31
2018-06-28T08:39:46.835Z,58.70
2018-06-28T08:40:45.865Z,59.38
2018-06-28T08:41:46.125Z,59.28
2018-06-28T08:42:46.405Z,58.21
2018-06-28T08:43:46.376Z,58.02
2018-06-28T08:44:46.673Z,57.24
2018-06-28T08:45:46.357Z,57.54
2018-06-28T08:46:47.632Z,56.76
2018-06-28T08:47:46.679Z,55.21
2018-06-28T08:48:47.937Z,53.67
2018-06-28T08:49:46.396Z,54.15
2018-06-28T08:50:46.898Z,53.69
2018-06-28T08:51:46.805Z,53.11
2018-06-28T08:52:46.882Z,52.24
2018-06-28T08:53:46.225Z,52.92
2018-06-28T08:54:46.680Z,52.44
2018-06-28T08:55:45.818Z,52.05
2018-06-28T08:56:46.870Z,52.82
2018-06-28T08:57:46.403Z,53.41
2018-06-28T08:58:46.323Z,52.56
2018-06-28T08:59:46.177Z,51.37
2018-06-28T09:00:48.323Z,51.95
2018-06-28T09:01:46.416Z,51.86
2018-06-28T09:02:45.683Z,51.95
2018-06-28T09:03:46.341Z,52.14
2018-06-28T09:04:46.403Z,52.63
2018-06-28T09:05:46.313Z,51.68
2018-06-28T09:06:46.770Z,52.17
2018-06-28T09:07:46.329Z,51.68
2018-06-28T09:08:45.824Z,50.82
2018-06-28T09:09:46.692Z,50.43
2018-06-28T09:10:46.709Z,50.72
2018-06-28T09:11:46.784Z,50.43
2018-06-28T09:12:46.428Z,50.82
2018-06-28T09:13:46.773Z,49.85
2018-06-28T09:14:46.404Z,50.24
2018-06-28T09:15:46.724Z,50.33
2018-06-28T09:16:46.916Z,50.24
2018-06-28T09:17:46.787Z,49.95
2018-06-28T09:18:46.332Z,50.04
2018-06-28T09:19:46.302Z,49.85
2018-06-28T09:20:47.213Z,51.20
2018-06-28T09:21:46.414Z,51.30
2018-06-28T09:22:46.249Z,51.10
2018-06-28T09:23:46.725Z,50.82
2018-06-28T09:24:46.391Z,50.26
2018-06-28T09:25:47.945Z,50.24
2018-06-28T09:26:46.389Z,49.85
2018-06-28T09:27:46.830Z,50.82
2018-06-28T09:28:46.607Z,50.43
2018-06-28T09:29:46.769Z,51.10
2018-06-28T09:30:48.413Z,51.98
2018-06-28T09:31:46.331Z,51.32
2018-06-28T09:32:46.401Z,50.16
2018-06-28T09:33:46.468Z,50.35
2018-06-28T09:34:46.681Z,49.77
2018-06-28T09:35:46.775Z,49.10
2018-06-28T09:36:46.745Z,49.29
2018-06-28T09:37:48.770Z,49.58
2018-06-28T09:38:48.477Z,50.26
2018-06-28T09:39:46.687Z,50.74
2018-06-28T09:40:46.633Z,50.74
2018-06-28T09:41:46.726Z,51.32
2018-06-28T09:42:46.497Z,51.52
2018-06-28T09:43:46.462Z,52.00
2018-06-28T09:44:46.806Z,52.00
2018-06-28T09:45:46.755Z,51.84
2018-06-28T09:46:46.253Z,51.13
2018-06-28T09:47:46.697Z,50.96
2018-06-28T09:48:47.480Z,49.68
2018-06-28T09:49:46.237Z,49.19
2018-06-28T09:50:45.931Z,49.90
2018-06-28T09:51:44.845Z,49.51
2018-06-28T09:52:46.307Z,49.99
2018-06-28T09:53:46.426Z,50.29
2018-06-28T09:54:46.906Z,50.09
2018-06-28T09:55:46.365Z,50.45
2018-06-28T09:56:46.345Z,51.25
2018-06-28T09:57:46.414Z,50.87
2018-06-28T09:58:46.400Z,50.29
2018-06-28T09:59:46.450Z,49.99
2018-06-28T10:00:48.036Z,50.41
2018-06-28T10:01:46.705Z,49.32
2018-06-28T10:02:46.725Z,49.22
2018-06-28T10:03:45.956Z,49.12
2018-06-28T10:04:46.648Z,49.41
2018-06-28T10:05:49.169Z,50.09
2018-06-28T10:06:46.920Z,50.19
2018-06-28T10:07:46.360Z,49.99
2018-06-28T10:08:46.654Z,49.99
2018-06-28T10:09:46.363Z,49.99
2018-06-28T10:10:46.941Z,49.99
2018-06-28T10:11:46.847Z,50.74
2018-06-28T10:12:46.914Z,50.45
2018-06-28T10:13:46.842Z,50.55
2018-06-28T10:14:46.933Z,49.99
2018-06-28T10:15:48.199Z,50.38
2018-06-28T10:16:46.775Z,48.93
2018-06-28T10:17:46.807Z,49.12
2018-06-28T10:18:46.761Z,49.12
2018-06-28T10:19:48.418Z,49.51
2018-06-28T10:20:46.877Z,49.44
2018-06-28T10:21:46.445Z,49.05
2018-06-28T10:22:47.341Z,48.74
2018-06-28T10:23:48.358Z,49.32
2018-06-28T10:24:46.792Z,48.47
2018-06-28T10:25:46.793Z,47.40
2018-06-28T10:26:46.820Z,45.85
2018-06-28T10:27:48.809Z,45.07
2018-06-28T10:28:48.699Z,45.65
2018-06-28T10:29:47.862Z,45.95
2018-06-28T10:30:48.466Z,46.14
2018-06-28T10:31:46.956Z,46.14
2018-06-28T10:32:46.923Z,46.14
2018-06-28T10:33:48.712Z,47.11
2018-06-28T10:34:46.412Z,47.13
2018-06-28T10:35:46.607Z,47.50
2018-06-28T10:36:46.945Z,47.52
2018-06-28T10:37:47.207Z,47.69
2018-06-28T10:38:48.917Z,48.20
2018-06-28T10:39:46.863Z,49.15
2018-06-28T10:40:46.446Z,48.88
2018-06-28T10:41:48.736Z,49.17
2018-06-28T10:42:46.792Z,49.07
2018-06-28T10:43:46.925Z,48.59
2018-06-28T10:44:47.217Z,48.37
2018-06-28T10:45:46.920Z,47.89
2018-06-28T10:46:47.285Z,48.00
2018-06-28T10:47:47.223Z,48.49
2018-06-28T10:48:46.964Z,48.85
2018-06-28T10:49:46.965Z,49.34
2018-06-28T10:51:01.419Z,48.57
2018-06-28T10:51:47.086Z,47.69
2018-06-28T10:52:46.941Z,46.99
2018-06-28T10:53:46.956Z,44.98
2018-06-28T10:54:47.524Z,44.20
2018-06-28T10:55:46.942Z,45.10
2018-06-28T10:56:46.935Z,45.00
2018-06-28T10:57:46.966Z,45.39
2018-06-28T10:58:46.723Z,45.12
2018-06-28T10:59:47.344Z,45.51
2018-06-28T11:00:46.928Z,45.21
2018-06-28T11:01:47.409Z,44.83
2018-06-28T11:02:48.996Z,44.73
2018-06-28T11:03:46.978Z,44.44
2018-06-28T11:04:46.928Z,45.21
2018-06-28T11:05:47.832Z,44.24
2018-06-28T11:06:47.274Z,44.54
2018-06-28T11:07:46.973Z,44.37
2018-06-28T11:08:46.879Z,44.17
2018-06-28T11:09:47.380Z,43.59
2018-06-28T11:10:46.947Z,44.07
2018-06-28T11:11:46.936Z,43.68
2018-06-28T11:12:48.466Z,43.98
2018-06-28T11:13:59.998Z,43.59
2018-06-28T11:14:46.725Z,43.78
2018-06-28T11:15:46.466Z,43.20
2018-06-28T11:16:46.458Z,43.78
2018-06-28T11:17:48.658Z,43.59
2018-06-28T11:18:46.957Z,43.88
2018-06-28T11:19:46.957Z,43.78
2018-06-28T11:20:46.961Z,43.88
2018-06-28T11:21:46.987Z,43.71
2018-06-28T11:22:46.753Z,44.09
2018-06-28T11:23:46.803Z,44.38
2018-06-28T11:24:46.958Z,44.38
2018-06-28T11:25:47.433Z,44.19
2018-06-28T11:26:46.933Z,43.71
2018-06-28T11:27:46.941Z,43.98
2018-06-28T11:28:55.880Z,44.07
2018-06-28T11:29:46.498Z,43.71
2018-06-28T11:30:46.636Z,42.93
2018-06-28T11:31:46.938Z,42.44
2018-06-28T11:32:46.890Z,42.44
2018-06-28T11:33:47.238Z,42.74
2018-06-28T11:34:45.196Z,42.54
2018-06-28T11:35:46.774Z,41.96
2018-06-28T11:36:46.841Z,42.15
2018-06-28T11:37:46.796Z,42.08
2018-06-28T11:38:47.350Z,41.30
2018-06-28T11:39:46.347Z,40.33
2018-06-28T11:40:46.951Z,40.23
2018-06-28T11:41:46.974Z,39.65
2018-06-28T11:42:46.955Z,40.03
2018-06-28T11:43:46.977Z,40.44
2018-06-28T11:44:47.953Z,40.83
2018-06-28T11:45:46.965Z,41.61
2018-06-28T11:46:46.904Z,41.39
2018-06-28T11:47:46.960Z,42.00
2018-06-28T11:48:46.956Z,41.51
2018-06-28T11:49:47.250Z,42.10
2018-06-28T11:50:46.902Z,40.83
2018-06-28T11:51:46.670Z,41.14
2018-06-28T11:52:46.769Z,41.63
2018-06-28T11:53:48.955Z,42.21
2018-06-28T11:54:47.259Z,42.02
2018-06-28T11:55:47.156Z,42.02
2018-06-28T11:56:47.243Z,42.21
2018-06-28T11:57:46.845Z,42.02
2018-06-28T11:58:46.495Z,42.21
2018-06-28T11:59:46.987Z,40.73
2018-06-28T12:00:46.933Z,39.96
2018-06-28T12:01:47.001Z,39.96
2018-06-28T12:02:46.999Z,39.59
2018-06-28T12:03:47.027Z,38.73
2018-06-28T12:04:47.105Z,38.26
2018-06-28T12:05:46.908Z,37.85
2018-06-28T12:06:46.896Z,38.44
2018-06-28T12:07:45.417Z,38.93
2018-06-28T12:08:47.112Z,39.51
2018-06-28T12:09:47.746Z,39.31
2018-06-28T12:10:47.016Z,39.70
2018-06-28T12:11:47.464Z,40.97
2018-06-28T12:12:46.810Z,40.00
2018-06-28T12:13:53.432Z,39.90
2018-06-28T12:14:46.961Z,39.90
2018-06-28T12:15:47.003Z,40.00
2018-06-28T12:16:49.284Z,39.51
2018-06-28T12:17:47.050Z,39.03
2018-06-28T12:18:46.969Z,39.04
2018-06-28T12:19:47.254Z,39.43
2018-06-28T12:20:46.484Z,39.06
2018-06-28T12:21:47.164Z,38.48
2018-06-28T12:22:46.812Z,38.57
2018-06-28T12:23:47.370Z,38.38
2018-06-28T12:24:47.255Z,38.49
2018-06-28T12:25:47.333Z,38.01
2018-06-28T12:26:48.981Z,37.41
2018-06-28T12:27:46.964Z,38.48
2018-06-28T12:28:47.318Z,38.56
2018-06-28T12:29:46.937Z,38.75
2018-06-28T12:30:47.419Z,38.65
2018-06-28T12:31:46.927Z,38.75
2018-06-28T12:32:47.288Z,38.09
2018-06-28T12:33:46.596Z,37.89
2018-06-28T12:34:47.283Z,37.89
2018-06-28T12:35:47.271Z,38.10
2018-06-28T12:36:46.974Z,37.52
2018-06-28T12:37:47.466Z,38.38
2018-06-28T12:38:46.991Z,38.67
2018-06-28T12:39:46.985Z,38.49
2018-06-28T12:40:47.681Z,38.40
2018-06-28T12:41:47.760Z,38.01
2018-06-28T12:42:46.985Z,38.02
2018-06-28T12:43:46.931Z,38.61
2018-06-28T12:44:47.322Z,38.79
2018-06-28T12:45:47.297Z,38.67
2018-06-28T12:46:46.996Z,38.38
2018-06-28T12:47:47.543Z,39.45
2018-06-28T12:48:47.491Z,40.01
2018-06-28T12:49:47.512Z,40.19
2018-06-28T12:50:47.787Z,41.06
2018-06-28T12:51:47.372Z,40.01
2018-06-28T12:52:47.323Z,39.16
2018-06-28T12:53:47.552Z,38.42
2018-06-28T12:54:47.011Z,37.37
2018-06-28T12:55:47.538Z,37.37